Time;durP1;ratioP1;P1;durP2;ratioP2;P2;SDS_P1;SDS_P2;PMS_P1;PMS_P2;Temp;Humidity;BMP_temperature;BMP_pressure;BME280_temperature;BME280_humidity;BME280_pressure;Samples;Min_cycle;Max_cycle;Signal;HPM_P1;HPM_P2
2021/09/08 00:01:16;;;;;;;4.90;4.50;;;;;;;21.24;52.03;100521.03;4957352;28;20066;-70
2021/09/08 00:03:42;;;;;;;4.82;4.40;;;;;;;21.15;52.81;100521.56;4957306;28;20030;-70
2021/09/08 00:06:10;;;;;;;5.28;4.78;;;;;;;21.18;52.63;100517.88;4956766;28;20375;-71
2021/09/08 00:08:36;;;;;;;5.25;4.75;;;;;;;21.20;52.23;100521.09;4956785;28;20478;-72
2021/09/08 00:11:04;;;;;;;5.05;4.65;;;;;;;21.11;52.90;100518.00;4956686;28;20061;-70
2021/09/08 00:13:32;;;;;;;5.30;4.75;;;;;;;21.24;52.57;100516.16;4956759;28;20482;-70
2021/09/08 00:16:01;;;;;;;4.95;4.55;;;;;;;21.13;52.82;100521.97;4957485;28;20086;-70
2021/09/08 00:18:29;;;;;;;4.60;4.20;;;;;;;21.11;52.78;100520.81;4957472;28;20161;-71
2021/09/08 00:20:55;;;;;;;4.45;3.90;;;;;;;21.13;52.76;100516.31;4956174;28;20081;-71
2021/09/08 00:23:23;;;;;;;5.00;4.00;;;;;;;21.00;52.91;100509.66;4959595;28;20054;-71
2021/09/08 00:25:52;;;;;;;4.68;4.30;;;;;;;20.97;53.15;100504.84;4960071;28;20509;-71
2021/09/08 00:28:20;;;;;;;4.93;4.43;;;;;;;21.01;53.25;100510.47;4960040;28;20041;-71
2021/09/08 00:30:46;;;;;;;4.80;4.35;;;;;;;20.97;53.23;100506.88;4959943;28;20034;-72
2021/09/08 00:33:14;;;;;;;5.35;4.80;;;;;;;20.92;53.40;100506.13;4959859;28;20031;-71
2021/09/08 00:35:43;;;;;;;6.93;4.65;;;;;;;20.96;53.30;100506.06;4960614;28;20042;-71
2021/09/08 00:38:10;;;;;;;4.95;4.55;;;;;;;20.88;53.72;100499.75;4959910;28;20038;-70
2021/09/08 00:40:39;;;;;;;5.13;4.13;;;;;;;20.90;53.75;100505.75;4959774;28;20031;-71
2021/09/08 00:43:07;;;;;;;5.50;4.93;;;;;;;20.79;54.07;100499.47;4977283;28;20031;-71
2021/09/08 00:45:33;;;;;;;5.63;5.07;;;;;;;20.81;54.17;100494.16;4959709;28;20038;-70
2021/09/08 00:47:59;;;;;;;4.70;4.22;;;;;;;20.78;53.93;100505.53;4959861;28;20030;-70
2021/09/08 00:50:33;;;;;;;5.00;4.60;;;;;;;20.71;54.27;100499.97;4960132;28;20038;-70
2021/09/08 00:53:02;;;;;;;4.80;4.40;;;;;;;20.76;54.15;100497.47;4959786;28;20509;-70
2021/09/08 00:55:30;;;;;;;5.07;4.47;;;;;;;20.66;54.46;100498.41;4959778;28;20382;-72
2021/09/08 00:57:56;;;;;;;4.85;4.45;;;;;;;20.70;54.43;100492.72;4959717;28;20027;-72
2021/09/08 01:00:22;;;;;;;4.68;4.28;;;;;;;20.69;54.61;100497.56;4959421;28;20374;-70
2021/09/08 01:02:52;;;;;;;5.82;4.38;;;;;;;20.70;54.65;100493.50;4959688;28;20128;-71
2021/09/08 01:05:18;;;;;;;4.97;4.47;;;;;;;20.69;54.57;100494.75;4959339;28;20117;-72
2021/09/08 01:07:46;;;;;;;5.72;4.65;;;;;;;20.60;54.78;100495.25;4959188;28;20113;-70
2021/09/08 01:10:12;;;;;;;5.15;4.72;;;;;;;20.65;55.04;100496.81;4960053;28;20043;-70
2021/09/08 01:12:43;;;;;;;5.13;4.63;;;;;;;20.65;55.22;100499.63;4959390;28;20037;-71
2021/09/08 01:15:11;;;;;;;4.75;4.40;;;;;;;20.58;55.33;100506.19;4959123;28;20030;-72
2021/09/08 01:17:42;;;;;;;5.55;4.93;;;;;;;20.57;55.57;100489.66;4976565;28;20039;-70
2021/09/08 01:20:12;;;;;;;5.18;4.78;;;;;;;20.58;55.72;100491.25;4976901;28;20070;-71
2021/09/08 01:22:50;;;;;;;5.90;5.00;;;;;;;20.58;55.36;100502.56;4958984;28;20481;-71
2021/09/08 01:25:27;;;;;;;5.75;3.72;;;;;;;20.59;55.62;100498.50;4958886;28;20117;-72
2021/09/08 01:27:54;;;;;;;6.22;4.63;;;;;;;20.65;55.35;100496.81;4958878;28;20090;-71
2021/09/08 01:30:22;;;;;;;6.43;4.38;;;;;;;20.56;55.47;100488.03;4958930;28;20027;-70
2021/09/08 01:32:48;;;;;;;6.45;4.68;;;;;;;20.55;55.41;100486.44;4958448;28;20031;-70
2021/09/08 01:35:16;;;;;;;6.30;5.10;;;;;;;20.55;55.54;100489.28;4958337;28;20033;-71
2021/09/08 01:37:45;;;;;;;5.28;4.88;;;;;;;20.50;55.71;100481.25;4958968;28;20497;-71
2021/09/08 01:40:14;;;;;;;5.35;4.45;;;;;;;20.43;56.04;100482.13;4958713;28;20189;-70
2021/09/08 01:42:43;;;;;;;4.45;4.13;;;;;;;20.37;56.16;100478.19;4958564;28;20057;-72
2021/09/08 01:45:14;;;;;;;5.10;4.40;;;;;;;20.39;56.02;100484.19;4958613;28;20038;-70
2021/09/08 01:47:43;;;;;;;4.55;4.25;;;;;;;20.40;56.11;100486.63;4958525;28;20023;-72
2021/09/08 01:50:13;;;;;;;4.88;4.20;;;;;;;20.46;55.85;100480.50;4958455;28;20125;-71
2021/09/08 01:52:41;;;;;;;5.80;5.03;;;;;;;20.46;55.90;100477.66;4958294;28;20022;-70
2021/09/08 01:55:09;;;;;;;4.38;4.03;;;;;;;20.50;55.79;100484.09;4958882;28;20027;-71
2021/09/08 01:57:37;;;;;;;8.38;5.55;;;;;;;20.41;55.77;100476.91;4958256;28;20027;-71
2021/09/08 02:00:09;;;;;;;4.30;4.00;;;;;;;20.30;56.04;100479.06;4975577;28;20481;-70
2021/09/08 02:02:34;;;;;;;4.82;4.30;;;;;;;20.27;56.37;100481.94;4958380;28;20477;-70
2021/09/08 02:05:03;;;;;;;3.90;3.55;;;;;;;20.33;55.90;100483.88;4958615;28;20030;-71
2021/09/08 02:07:28;;;;;;;4.72;4.30;;;;;;;20.26;56.50;100478.31;4975420;28;20503;-70
2021/09/08 02:09:54;;;;;;;4.40;4.10;;;;;;;20.28;55.93;100464.53;4958282;28;20046;-73
2021/09/08 02:12:20;;;;;;;4.60;4.20;;;;;;;20.31;55.68;100475.00;4957836;28;20034;-70
2021/09/08 02:14:48;;;;;;;4.30;4.00;;;;;;;20.27;55.95;100468.59;4941973;28;20413;-71
2021/09/08 02:17:13;;;;;;;4.38;3.97;;;;;;;20.25;56.02;100468.22;4957837;28;20134;-70
2021/09/08 02:19:42;;;;;;;4.45;4.05;;;;;;;20.31;55.87;100466.53;4957735;28;20139;-70
2021/09/08 02:22:10;;;;;;;4.55;4.25;;;;;;;20.35;56.07;100467.31;4957372;28;20065;-73
2021/09/08 02:24:38;;;;;;;3.85;3.55;;;;;;;20.30;55.71;100464.94;4958279;28;20432;-70
2021/09/08 02:27:08;;;;;;;8.43;5.00;;;;;;;20.33;55.75;100468.94;4941459;28;20592;-71
2021/09/08 02:29:36;;;;;;;4.50;4.10;;;;;;;20.37;55.54;100459.19;4957613;28;20077;-71
2021/09/08 02:32:03;;;;;;;5.22;4.82;;;;;;;20.33;55.20;100463.28;4957383;28;20030;-70
2021/09/08 02:34:32;;;;;;;4.25;3.85;;;;;;;20.28;55.71;100460.91;4957573;28;20027;-72
2021/09/08 02:36:59;;;;;;;5.32;4.82;;;;;;;20.34;55.63;100465.69;4957865;28;20069;-72
2021/09/08 02:39:25;;;;;;;11.43;10.20;;;;;;;20.37;55.43;100469.69;4941724;28;20027;-72
2021/09/08 02:41:56;;;;;;;11.00;9.73;;;;;;;20.24;55.73;100466.63;4957739;28;20105;-70
2021/09/08 02:44:22;;;;;;;10.55;9.55;;;;;;;20.22;55.91;100460.59;4957876;28;20525;-71
2021/09/08 02:46:47;;;;;;;11.77;10.68;;;;;;;20.10;56.16;100461.94;4957389;28;20130;-72
2021/09/08 02:49:13;;;;;;;10.50;9.60;;;;;;;20.13;56.08;100461.13;4957815;28;20041;-70
2021/09/08 02:51:38;;;;;;;10.93;9.93;;;;;;;20.09;56.44;100470.84;4957297;28;20034;-72
2021/09/08 02:54:07;;;;;;;20.65;18.45;;;;;;;20.04;56.46;100468.47;4957852;28;20027;-72
2021/09/08 02:56:32;;;;;;;14.05;12.75;;;;;;;20.09;55.95;100459.56;4958024;28;20354;-70
2021/09/08 02:59:00;;;;;;;10.30;9.40;;;;;;;20.11;56.26;100457.09;4957527;28;20085;-72
2021/09/08 03:01:28;;;;;;;8.20;7.50;;;;;;;20.01;55.95;100458.03;4956908;28;20101;-72
2021/09/08 03:03:57;;;;;;;7.65;6.97;;;;;;;20.01;56.32;100455.19;4957302;28;20030;-70
2021/09/08 03:06:28;;;;;;;7.32;6.70;;;;;;;20.05;55.93;100453.13;4957448;28;20062;-72
2021/09/08 03:08:54;;;;;;;5.28;4.78;;;;;;;20.00;56.36;100456.41;4957175;28;20057;-70
2021/09/08 03:11:20;;;;;;;5.88;5.20;;;;;;;19.96;56.44;100452.84;4957700;28;20058;-70
2021/09/08 03:13:46;;;;;;;5.13;4.70;;;;;;;19.98;56.52;100453.22;4957294;28;20031;-70
2021/09/08 03:16:16;;;;;;;5.25;4.85;;;;;;;19.97;56.40;100451.59;4957159;28;20031;-71
2021/09/08 03:18:42;;;;;;;6.60;4.80;;;;;;;19.94;56.45;100455.28;4957200;28;20031;-71
2021/09/08 03:21:08;;;;;;;5.95;4.60;;;;;;;19.96;56.65;100450.00;4957003;28;20109;-71
2021/09/08 03:23:36;;;;;;;6.00;4.45;;;;;;;20.00;56.55;100459.25;4957091;28;20078;-71
2021/09/08 03:26:05;;;;;;;7.70;4.40;;;;;;;19.97;56.26;100448.78;4957640;28;20398;-71
2021/09/08 03:28:33;;;;;;;4.43;4.07;;;;;;;19.93;56.28;100451.66;4957413;28;20074;-72
2021/09/08 03:30:59;;;;;;;5.22;4.75;;;;;;;19.85;56.38;100441.66;4956805;28;20031;-70
2021/09/08 03:33:30;;;;;;;5.78;4.75;;;;;;;19.93;56.43;100448.03;4957589;28;20074;-70
2021/09/08 03:35:58;;;;;;;4.50;4.10;;;;;;;19.86;56.73;100443.25;4957317;28;20130;-71
2021/09/08 03:38:26;;;;;;;4.93;4.53;;;;;;;19.86;56.73;100446.88;4957548;28;20023;-71
2021/09/08 03:40:55;;;;;;;5.45;5.03;;;;;;;19.81;56.27;100416.28;4956855;28;20031;-70
2021/09/08 03:43:26;;;;;;;5.38;4.80;;;;;;;19.91;56.77;100442.00;4956827;28;20035;-71
2021/09/08 03:45:55;;;;;;;4.57;4.20;;;;;;;19.83;57.08;100450.56;4957104;28;20054;-71
2021/09/08 03:48:20;;;;;;;4.95;4.55;;;;;;;19.93;56.91;100451.66;4957088;28;20023;-70
2021/09/08 03:50:49;;;;;;;6.15;5.22;;;;;;;19.93;56.68;100445.22;4956692;28;20363;-70
2021/09/08 03:53:20;;;;;;;5.88;4.60;;;;;;;19.86;56.66;100444.03;4956840;28;20097;-71
2021/09/08 03:55:52;;;;;;;4.80;4.40;;;;;;;19.94;56.47;100446.81;4957409;28;20069;-71
2021/09/08 03:58:18;;;;;;;9.10;5.45;;;;;;;19.95;56.37;100445.59;4959917;28;20110;-70
2021/09/08 04:00:46;;;;;;;4.70;4.30;;;;;;;19.92;56.39;100444.41;4960995;28;20185;-70
2021/09/08 04:03:11;;;;;;;5.80;4.80;;;;;;;19.84;56.80;100438.03;4960818;28;20445;-70
2021/09/08 04:05:40;;;;;;;5.07;4.40;;;;;;;19.73;57.40;100443.00;4960818;28;20080;-71
2021/09/08 04:08:05;;;;;;;4.95;4.55;;;;;;;19.77;57.27;100443.75;4960368;28;20073;-71
2021/09/08 04:10:34;;;;;;;6.10;5.15;;;;;;;19.77;57.42;100437.31;4960340;28;20030;-72
2021/09/08 04:13:02;;;;;;;4.88;4.20;;;;;;;19.82;57.03;100440.47;4960166;28;20034;-72
2021/09/08 04:15:29;;;;;;;5.30;4.47;;;;;;;19.71;57.49;100448.28;4960676;28;20035;-71
2021/09/08 04:17:58;;;;;;;4.50;4.07;;;;;;;19.76;57.38;100442.16;4960609;28;20031;-71
2021/09/08 04:20:24;;;;;;;7.03;4.88;;;;;;;19.75;57.35;100437.72;4959754;28;20057;-70
2021/09/08 04:22:52;;;;;;;6.00;4.53;;;;;;;19.77;57.15;100443.75;4959943;28;20034;-71
2021/09/08 04:25:18;;;;;;;4.53;4.13;;;;;;;19.78;57.30;100442.53;4977547;28;20035;-70
2021/09/08 04:27:44;;;;;;;6.57;5.50;;;;;;;19.69;57.16;100442.22;4959783;28;20324;-70
2021/09/08 04:30:10;;;;;;;5.38;4.93;;;;;;;19.64;57.23;100445.50;4960319;28;20101;-71
2021/09/08 04:32:39;;;;;;;5.82;5.30;;;;;;;19.66;57.45;100442.28;4960143;28;20323;-71
2021/09/08 04:35:05;;;;;;;5.05;4.65;;;;;;;19.65;57.19;100443.47;4959834;28;20069;-71
2021/09/08 04:37:33;;;;;;;5.43;4.93;;;;;;;19.59;57.33;100445.94;4959300;28;20184;-72
2021/09/08 04:40:06;;;;;;;5.13;4.43;;;;;;;19.71;57.15;100438.97;4959611;28;20042;-71
2021/09/08 04:42:34;;;;;;;5.72;5.22;;;;;;;19.65;56.82;100447.09;4959607;28;20035;-71
2021/09/08 04:44:59;;;;;;;4.55;4.15;;;;;;;19.64;56.63;100445.50;4959521;28;20035;-71
2021/09/08 04:47:29;;;;;;;5.18;4.72;;;;;;;19.65;56.99;100444.28;4959394;28;20053;-71
2021/09/08 04:49:57;;;;;;;4.75;4.35;;;;;;;19.81;56.84;100449.34;4960176;28;20034;-70
2021/09/08 04:52:26;;;;;;;4.95;4.55;;;;;;;19.95;56.05;100448.41;4959750;28;20455;-71
2021/09/08 04:54:57;;;;;;;4.53;4.20;;;;;;;20.04;55.70;100445.88;4960051;28;20030;-71
2021/09/08 04:57:25;;;;;;;5.85;4.38;;;;;;;20.47;54.87;100451.03;4959318;28;20142;-73
2021/09/08 04:59:57;;;;;;;5.20;4.70;;;;;;;20.90;53.44;100452.03;4959754;28;20404;-73
2021/09/08 05:02:28;;;;;;;4.85;4.45;;;;;;;21.19;52.54;100457.22;4959223;28;20062;-72
2021/09/08 05:04:56;;;;;;;7.88;3.70;;;;;;;21.60;50.90;100453.34;4959243;28;20031;-71
2021/09/08 05:07:22;;;;;;;4.70;4.28;;;;;;;21.94;49.72;100455.91;4959410;28;20117;-71
2021/09/08 05:09:50;;;;;;;4.50;4.10;;;;;;;21.76;50.15;100453.44;4957975;28;20515;-70
2021/09/08 05:12:21;;;;;;;6.47;4.32;;;;;;;21.94;49.74;100456.75;4958998;28;20035;-71
2021/09/08 05:14:47;;;;;;;4.85;4.40;;;;;;;22.49;48.36;100463.72;4959503;28;20434;-71
2021/09/08 05:17:19;;;;;;;4.57;4.18;;;;;;;23.16;46.52;100459.81;4958960;28;20062;-72
2021/09/08 05:19:47;;;;;;;4.25;3.85;;;;;;;23.57;45.28;100436.44;4959195;28;20492;-72
2021/09/08 05:22:18;;;;;;;5.20;4.13;;;;;;;24.19;43.86;100465.63;4959381;28;20038;-72
2021/09/08 05:24:49;;;;;;;4.28;3.88;;;;;;;24.64;42.73;100461.88;4958838;28;20027;-70
2021/09/08 05:27:15;;;;;;;4.30;4.00;;;;;;;24.87;41.74;100462.81;4959434;28;20081;-71
2021/09/08 05:29:43;;;;;;;5.95;4.53;;;;;;;24.94;41.94;100465.44;4957941;28;20429;-71
2021/09/08 05:32:09;;;;;;;8.30;4.65;;;;;;;24.94;41.54;100466.25;4958554;28;20085;-72
2021/09/08 05:34:34;;;;;;;4.07;3.78;;;;;;;25.41;40.80;100459.88;4958434;28;20038;-71
2021/09/08 05:37:03;;;;;;;4.90;4.40;;;;;;;25.01;41.57;100454.63;4958942;28;20038;-71
2021/09/08 05:39:28;;;;;;;8.32;3.92;;;;;;;25.33;40.78;100452.78;4959124;28;20489;-72
2021/09/08 05:41:56;;;;;;;5.28;4.30;;;;;;;25.98;39.57;100457.88;4958510;28;20031;-72
2021/09/08 05:44:24;;;;;;;4.80;3.65;;;;;;;26.59;38.18;100467.84;4958787;28;20034;-73
2021/09/08 05:46:52;;;;;;;8.70;4.25;;;;;;;27.13;37.02;100460.84;4958479;28;20034;-72
2021/09/08 05:49:18;;;;;;;7.07;4.63;;;;;;;27.55;36.49;100460.31;4958375;28;20031;-71
2021/09/08 05:51:49;;;;;;;4.43;3.85;;;;;;;28.02;34.96;100453.38;4958248;28;20031;-71
2021/09/08 05:54:17;;;;;;;3.88;3.40;;;;;;;28.33;34.57;100463.84;4958785;28;20039;-72
2021/09/08 05:56:42;;;;;;;5.20;3.80;;;;;;;28.49;34.44;100460.66;4958303;28;20082;-71
2021/09/08 05:59:08;;;;;;;4.15;3.72;;;;;;;28.32;34.42;100467.97;4958571;28;20038;-71
2021/09/08 06:01:36;;;;;;;3.95;3.58;;;;;;;27.71;35.36;100464.19;4958226;28;20066;-72
2021/09/08 06:04:02;;;;;;;5.53;4.72;;;;;;;27.05;36.45;100476.63;4958317;28;20390;-71
2021/09/08 06:06:33;;;;;;;9.15;3.95;;;;;;;26.64;37.55;100470.09;4957667;28;20030;-72
2021/09/08 06:09:01;;;;;;;7.90;4.07;;;;;;;26.10;38.17;100468.44;4958039;28;20031;-71
2021/09/08 06:11:27;;;;;;;6.20;4.15;;;;;;;25.77;38.86;100470.03;4957764;28;20163;-72
2021/09/08 06:13:55;;;;;;;5.75;4.07;;;;;;;25.26;40.15;100467.28;4958030;28;20046;-72
2021/09/08 06:16:24;;;;;;;4.45;4.15;;;;;;;25.15;40.79;100470.47;4958104;28;20041;-73
2021/09/08 06:18:49;;;;;;;4.57;3.75;;;;;;;25.45;40.28;100471.13;4957915;28;20061;-72
2021/09/08 06:21:21;;;;;;;5.28;3.92;;;;;;;25.44;40.08;100472.38;4956878;28;20078;-72
2021/09/08 06:23:47;;;;;;;5.75;4.22;;;;;;;25.11;40.85;100469.00;4957759;28;20118;-72
2021/09/08 06:26:13;;;;;;;6.88;4.05;;;;;;;25.21;40.37;100462.97;4957676;28;20121;-72
2021/09/08 06:28:38;;;;;;;4.30;3.63;;;;;;;25.40;39.96;100474.53;4957493;28;20126;-72
2021/09/08 06:31:07;;;;;;;4.45;4.05;;;;;;;25.63;40.10;100470.53;4957437;28;20062;-73
2021/09/08 06:33:38;;;;;;;4.38;4.03;;;;;;;26.68;38.16;100486.28;4957660;28;20031;-72
2021/09/08 06:36:08;;;;;;;4.53;4.05;;;;;;;27.27;36.00;100484.34;4957357;28;20039;-71
2021/09/08 06:38:37;;;;;;;4.43;4.03;;;;;;;27.54;35.52;100478.72;4957262;28;20089;-71
2021/09/08 06:41:05;;;;;;;4.63;4.22;;;;;;;28.05;34.21;100475.28;4957652;28;20054;-73
2021/09/08 06:43:33;;;;;;;4.25;3.85;;;;;;;28.39;33.35;100477.06;4957086;28;20046;-71
2021/09/08 06:46:07;;;;;;;4.28;3.88;;;;;;;28.65;33.13;100486.03;4974309;28;20039;-71
2021/09/08 06:48:33;;;;;;;5.18;4.20;;;;;;;28.89;32.25;100482.50;4957170;28;20027;-73
2021/09/08 06:51:02;;;;;;;4.28;3.97;;;;;;;29.33;31.34;100487.72;4957143;28;20039;-73
2021/09/08 06:53:30;;;;;;;5.75;3.28;;;;;;;29.77;30.21;100481.44;4957326;28;20046;-71
2021/09/08 06:55:58;;;;;;;3.90;3.60;;;;;;;30.00;30.20;100489.22;4957342;28;20041;-74
2021/09/08 06:58:26;;;;;;;7.07;3.55;;;;;;;30.27;28.92;100496.84;4957105;28;20035;-73
2021/09/08 07:00:54;;;;;;;3.65;3.30;;;;;;;30.88;28.54;100505.00;4957198;28;20125;-72
2021/09/08 07:03:26;;;;;;;6.15;3.58;;;;;;;30.90;28.74;100506.13;4957232;28;20063;-71
2021/09/08 07:05:54;;;;;;;3.75;3.45;;;;;;;31.15;28.37;100501.00;4957097;28;20033;-74
2021/09/08 07:08:22;;;;;;;4.05;2.85;;;;;;;31.44;27.16;100505.94;4957616;28;20031;-72
2021/09/08 07:10:51;;;;;;;5.00;3.38;;;;;;;30.64;28.03;100508.75;4957066;28;20482;-71
2021/09/08 07:13:19;;;;;;;4.30;3.90;;;;;;;30.31;29.03;100502.38;4957268;28;20026;-72
2021/09/08 07:15:47;;;;;;;5.40;3.67;;;;;;;30.35;29.07;100511.59;4957245;28;20031;-72
2021/09/08 07:18:18;;;;;;;4.90;3.72;;;;;;;29.23;29.97;100507.81;4941562;28;20027;-72
2021/09/08 07:20:49;;;;;;;3.85;3.55;;;;;;;28.94;30.08;100499.06;4956771;28;20059;-71
2021/09/08 07:23:18;;;;;;;4.70;3.97;;;;;;;29.12;30.70;100507.56;4957035;28;20042;-72
2021/09/08 07:25:49;;;;;;;4.07;3.67;;;;;;;29.33;30.02;100508.59;4957009;28;20030;-73
2021/09/08 07:28:26;;;;;;;6.75;3.90;;;;;;;28.99;30.00;100504.13;4974306;28;20046;-73
2021/09/08 07:30:56;;;;;;;4.22;3.92;;;;;;;29.28;29.44;100508.44;4956514;28;20046;-73
2021/09/08 07:33:23;;;;;;;4.60;4.20;;;;;;;28.92;30.26;100507.28;4960164;28;20045;-71
2021/09/08 07:35:52;;;;;;;4.72;3.83;;;;;;;29.49;29.74;100511.03;4960873;28;20037;-73
2021/09/08 07:38:21;;;;;;;4.60;4.20;;;;;;;30.05;28.96;100510.72;4960894;28;20092;-75
2021/09/08 07:41:01;;;;;;;5.85;4.22;;;;;;;30.37;28.77;100514.78;4960214;28;20058;-75
2021/09/08 07:43:26;;;;;;;5.00;4.50;;;;;;;30.46;28.02;100509.72;4977952;28;20109;-75
2021/09/08 07:45:52;;;;;;;7.75;6.57;;;;;;;30.34;28.14;100519.41;4961595;28;20117;-72
2021/09/08 07:48:37;;;;;;;9.57;7.03;;;;;;;29.75;28.77;100508.53;4960533;28;20054;-74
2021/09/08 07:51:03;;;;;;;5.93;5.15;;;;;;;29.96;28.09;100518.09;4960646;28;20031;-74
2021/09/08 07:53:28;;;;;;;5.82;4.88;;;;;;;30.42;27.55;100514.09;4944848;28;20031;-71
2021/09/08 07:55:56;;;;;;;11.60;6.28;;;;;;;30.30;28.47;100512.28;4960437;28;20058;-74
2021/09/08 07:58:24;;;;;;;5.15;4.75;;;;;;;30.07;27.74;100523.28;4960420;28;20034;-73
2021/09/08 08:00:57;;;;;;;5.90;4.32;;;;;;;29.77;28.62;100510.09;4960369;28;20038;-71
2021/09/08 08:03:32;;;;;;;9.43;4.95;;;;;;;30.22;28.71;100517.63;4978155;28;20026;-71
2021/09/08 08:06:03;;;;;;;5.90;4.30;;;;;;;30.29;28.28;100519.31;4960559;28;20062;-71
2021/09/08 08:08:34;;;;;;;3.97;3.67;;;;;;;29.85;29.12;100517.06;4959765;28;20031;-73
2021/09/08 08:11:05;;;;;;;4.03;3.63;;;;;;;30.68;27.81;100520.03;4960813;28;20073;-72
2021/09/08 08:13:33;;;;;;;4.93;4.43;;;;;;;30.62;27.40;100527.75;4960699;28;20034;-73
2021/09/08 08:16:03;;;;;;;4.78;3.92;;;;;;;31.04;26.95;100536.09;4960228;28;20033;-71
2021/09/08 08:18:32;;;;;;;4.38;4.00;;;;;;;30.84;26.82;100531.09;4959851;28;20023;-73
2021/09/08 08:21:03;;;;;;;6.32;3.80;;;;;;;30.42;27.33;100537.06;4959760;28;20569;-72
2021/09/08 08:23:29;;;;;;;5.18;3.58;;;;;;;30.84;27.28;100530.25;4960016;28;20050;-70
2021/09/08 08:25:57;;;;;;;4.03;3.72;;;;;;;31.22;26.43;100530.16;4960151;28;20058;-70
2021/09/08 08:28:25;;;;;;;4.18;3.53;;;;;;;30.49;27.92;100528.06;4959738;28;20031;-70
2021/09/08 08:30:54;;;;;;;4.47;4.05;;;;;;;30.83;26.56;100526.59;4959504;28;20122;-70
2021/09/08 08:33:25;;;;;;;4.78;4.03;;;;;;;30.43;27.17;100521.41;4959711;28;20504;-70
2021/09/08 08:35:55;;;;;;;3.88;3.53;;;;;;;30.87;26.74;100526.41;4959462;28;20041;-70
2021/09/08 08:38:21;;;;;;;5.10;3.70;;;;;;;31.62;25.42;100533.63;4974233;28;20395;-71
2021/09/08 08:40:50;;;;;;;5.10;4.60;;;;;;;31.05;26.43;100531.94;4959633;28;20035;-71
2021/09/08 08:43:19;;;;;;;7.70;5.93;;;;;;;31.32;26.35;100530.03;4959246;28;20029;-71
2021/09/08 08:45:48;;;;;;;10.43;6.43;;;;;;;32.18;25.39;100543.06;4959830;28;20117;-70
2021/09/08 08:48:17;;;;;;;7.43;5.88;;;;;;;32.33;24.80;100535.91;4959457;28;20027;-72
2021/09/08 08:50:45;;;;;;;6.65;4.97;;;;;;;32.41;23.66;100532.59;4959461;28;20121;-72
2021/09/08 08:53:13;;;;;;;5.32;4.82;;;;;;;33.20;22.75;100532.06;4958906;28;20022;-73
2021/09/08 08:55:41;;;;;;;5.18;4.55;;;;;;;33.98;22.01;100525.25;4958965;28;20126;-72
2021/09/08 08:58:09;;;;;;;7.03;5.45;;;;;;;32.70;23.43;100528.69;4958761;28;20034;-72
2021/09/08 09:00:41;;;;;;;7.72;4.78;;;;;;;32.19;22.76;100525.25;4959069;28;20097;-71
2021/09/08 09:03:23;;;;;;;4.20;3.80;;;;;;;32.86;22.34;100520.22;4959257;28;20035;-71
2021/09/08 09:06:02;;;;;;;5.60;3.97;;;;;;;32.29;22.68;100517.28;4959658;28;20478;-72
2021/09/08 09:08:35;;;;;;;4.35;3.42;;;;;;;31.99;22.61;100525.28;4959537;28;20037;-72
2021/09/08 09:11:02;;;;;;;3.55;3.08;;;;;;;32.17;22.77;100516.31;4976688;28;20045;-71
2021/09/08 09:13:32;;;;;;;3.10;2.90;;;;;;;32.78;21.74;100512.56;4976961;28;20035;-72
2021/09/08 09:16:05;;;;;;;3.10;2.72;;;;;;;33.29;21.42;100505.94;4977067;28;20023;-71
2021/09/08 09:18:42;;;;;;;4.35;3.22;;;;;;;33.97;20.74;100507.13;4959894;28;20097;-73
2021/09/08 09:21:11;;;;;;;4.57;3.40;;;;;;;34.40;20.33;100519.34;4943221;28;20184;-71
2021/09/08 09:23:57;;;;;;;3.00;2.75;;;;;;;33.70;19.87;100508.56;4958954;28;20066;-72
2021/09/08 09:26:28;;;;;;;3.03;2.83;;;;;;;33.23;21.06;100513.72;4959019;28;20034;-72
2021/09/08 09:29:07;;;;;;;3.30;3.08;;;;;;;33.00;20.94;100500.47;4958898;28;20041;-72
2021/09/08 09:31:33;;;;;;;3.92;3.58;;;;;;;32.49;21.60;100510.69;4958785;28;20027;-72
2021/09/08 09:33:59;;;;;;;3.20;3.00;;;;;;;33.04;20.82;100498.13;4958974;28;20038;-74
2021/09/08 09:36:31;;;;;;;3.38;3.08;;;;;;;31.79;21.72;100503.00;4959057;28;20030;-73
2021/09/08 09:38:58;;;;;;;2.78;2.58;;;;;;;32.38;20.89;100502.72;4976429;28;20081;-74
2021/09/08 09:41:26;;;;;;;3.17;2.97;;;;;;;33.04;19.96;100498.94;4958668;28;20037;-70
2021/09/08 09:43:54;;;;;;;2.90;2.70;;;;;;;33.15;19.88;100498.22;4959319;28;20038;-74
2021/09/08 09:46:25;;;;;;;3.22;2.53;;;;;;;32.66;19.74;100496.47;4958546;28;20043;-72
2021/09/08 09:48:54;;;;;;;2.47;2.28;;;;;;;32.90;19.70;100490.41;4958798;28;20030;-73
2021/09/08 09:51:25;;;;;;;4.00;2.70;;;;;;;32.95;20.36;100499.09;4957879;28;20118;-71
2021/09/08 09:53:57;;;;;;;2.88;2.67;;;;;;;33.42;20.42;100484.53;4957780;28;20026;-71
2021/09/08 09:56:25;;;;;;;4.10;3.70;;;;;;;32.56;23.73;100495.84;4958124;28;20027;-72
2021/09/08 09:58:54;;;;;;;4.40;3.90;;;;;;;32.84;24.16;100484.59;4975566;28;20035;-70
2021/09/08 10:01:20;;;;;;;10.23;4.30;;;;;;;32.83;24.64;100495.31;4957945;28;20018;-73
2021/09/08 10:03:49;;;;;;;5.55;3.60;;;;;;;33.14;23.56;100485.13;4957831;28;20038;-70
2021/09/08 10:06:21;;;;;;;3.50;3.20;;;;;;;33.59;22.24;100483.31;4958055;28;20025;-71
2021/09/08 10:08:56;;;;;;;3.30;3.00;;;;;;;33.87;21.62;100486.31;4942492;28;20038;-72
2021/09/08 10:11:32;;;;;;;3.85;3.55;;;;;;;34.16;19.53;100495.94;4974878;28;20035;-71
2021/09/08 10:14:12;;;;;;;3.50;3.20;;;;;;;34.16;19.55;100486.47;4975668;28;20173;-72
2021/09/08 10:16:41;;;;;;;3.50;3.20;;;;;;;33.88;21.91;100481.38;4958025;28;20031;-71
2021/09/08 10:19:10;;;;;;;3.47;3.28;;;;;;;32.56;23.81;100484.34;4958025;28;20031;-71
2021/09/08 10:21:45;;;;;;;3.78;3.47;;;;;;;32.95;22.73;100475.28;4957831;28;20047;-70
2021/09/08 10:24:24;;;;;;;4.53;4.10;;;;;;;33.10;23.29;100478.78;4957431;28;20019;-71
2021/09/08 10:26:50;;;;;;;4.38;3.60;;;;;;;33.18;22.66;100474.13;4957852;28;20359;-72
2021/09/08 10:29:27;;;;;;;5.13;3.78;;;;;;;32.80;23.51;100473.28;4957910;28;20031;-71
2021/09/08 10:31:58;;;;;;;3.60;3.30;;;;;;;33.41;22.56;100477.16;4958222;28;20359;-72
2021/09/08 10:34:25;;;;;;;4.32;3.70;;;;;;;33.94;22.18;100473.56;4957798;28;20030;-71
2021/09/08 10:36:54;;;;;;;3.47;3.17;;;;;;;33.91;22.54;100473.75;4957888;28;20066;-71
2021/09/08 10:39:25;;;;;;;3.42;2.92;;;;;;;33.49;22.92;100472.50;4975298;28;20076;-72
2021/09/08 10:41:55;;;;;;;3.17;2.97;;;;;;;33.13;23.35;100474.09;4957882;28;20038;-71
2021/09/08 10:44:46;;;;;;;3.33;3.13;;;;;;;32.93;23.66;100464.25;4958105;28;20026;-71
2021/09/08 10:47:17;;;;;;;3.10;2.90;;;;;;;33.08;22.65;100467.78;4957513;28;20031;-72
2021/09/08 10:49:52;;;;;;;3.10;2.90;;;;;;;33.38;21.80;100465.34;4957485;28;20058;-73
2021/09/08 10:52:38;;;;;;;3.10;2.90;;;;;;;33.07;22.56;100462.50;4957505;28;20022;-72
2021/09/08 10:55:20;;;;;;;4.50;3.13;;;;;;;33.18;22.82;100462.59;4958226;28;20326;-72
2021/09/08 10:57:58;;;;;;;3.10;2.83;;;;;;;33.91;22.23;100456.44;4974850;28;20026;-72
2021/09/08 11:00:36;;;;;;;3.70;3.40;;;;;;;33.76;22.53;100457.44;4958089;28;20031;-72
2021/09/08 11:03:26;;;;;;;4.38;3.60;;;;;;;33.27;22.77;100453.75;4957714;28;20085;-73
2021/09/08 11:05:59;;;;;;;3.50;3.30;;;;;;;32.48;23.69;100454.41;4974735;28;20038;-71
2021/09/08 11:08:29;;;;;;;3.33;3.13;;;;;;;32.49;24.34;100447.34;4957410;28;20062;-72
2021/09/08 11:11:08;;;;;;;4.88;2.90;;;;;;;33.04;23.46;100446.25;4957277;28;20030;-71
2021/09/08 11:13:40;;;;;;;3.42;3.13;;;;;;;33.01;22.81;100444.41;4957630;28;20118;-72
2021/09/08 11:16:17;;;;;;;3.20;2.90;;;;;;;32.55;22.82;100448.19;4957484;28;20031;-72
2021/09/08 11:18:48;;;;;;;2.75;2.55;;;;;;;33.15;22.24;100442.66;4957374;28;20039;-71
2021/09/08 11:21:16;;;;;;;4.40;3.65;;;;;;;32.98;22.42;100439.69;4974626;28;20105;-71
2021/09/08 11:23:49;;;;;;;3.20;2.90;;;;;;;33.58;22.10;100446.34;4957591;28;20460;-71
2021/09/08 11:26:15;;;;;;;3.88;3.47;;;;;;;34.03;22.36;100435.00;4957231;28;20039;-70
2021/09/08 11:28:44;;;;;;;3.58;3.00;;;;;;;33.98;22.60;100442.31;4957614;28;20066;-70
2021/09/08 11:31:17;;;;;;;4.78;3.13;;;;;;;33.50;22.82;100425.84;4957389;28;20042;-72
2021/09/08 11:33:49;;;;;;;3.33;3.03;;;;;;;33.49;22.32;100443.66;4974545;28;20090;-70